sensor_id;sensor_type;location;lat;lon;timestamp;P1;durP1;ratioP1;P2;durP2;ratioP2
64157;SDS011;50449;51.528;5.076;2024-01-30T00:00:35;65.95;;;61.80;;
64157;SDS011;50449;51.528;5.076;2024-01-30T00:03:00;64.88;;;61.45;;
64157;SDS011;50449;51.528;5.076;2024-01-30T00:05:26;63.05;;;59.13;;
64157;SDS011;50449;51.528;5.076;2024-01-30T00:07:51;64.03;;;60.70;;
64157;SDS011;50449;51.528;5.076;2024-01-30T00:10:16;58.00;;;54.90;;
64157;SDS011;50449;51.528;5.076;2024-01-30T00:12:42;59.40;;;56.10;;
64157;SDS011;50449;51.528;5.076;2024-01-30T00:15:07;61.17;;;57.97;;
64157;SDS011;50449;51.528;5.076;2024-01-30T00:17:35;66.90;;;63.50;;
64157;SDS011;50449;51.528;5.076;2024-01-30T00:20:01;65.65;;;61.95;;
64157;SDS011;50449;51.528;5.076;2024-01-30T00:22:30;62.25;;;59.08;;
64157;SDS011;50449;51.528;5.076;2024-01-30T00:24:56;65.03;;;61.50;;
64157;SDS011;50449;51.528;5.076;2024-01-30T00:27:21;60.55;;;57.45;;
64157;SDS011;50449;51.528;5.076;2024-01-30T00:29:46;63.00;;;59.50;;
64157;SDS011;50449;51.528;5.076;2024-01-30T00:32:12;63.22;;;59.83;;
64157;SDS011;50449;51.528;5.076;2024-01-30T00:34:37;64.53;;;61.05;;
64157;SDS011;50449;51.528;5.076;2024-01-30T00:37:02;67.28;;;63.42;;
64157;SDS011;50449;51.528;5.076;2024-01-30T00:39:28;61.45;;;58.28;;
64157;SDS011;50449;51.528;5.076;2024-01-30T00:41:53;68.22;;;64.65;;
64157;SDS011;50449;51.528;5.076;2024-01-30T00:44:19;64.95;;;61.65;;
64157;SDS011;50449;51.528;5.076;2024-01-30T00:46:45;62.85;;;59.45;;
64157;SDS011;50449;51.528;5.076;2024-01-30T00:49:10;66.57;;;62.88;;
64157;SDS011;50449;51.528;5.076;2024-01-30T00:51:36;60.45;;;57.33;;
64157;SDS011;50449;51.528;5.076;2024-01-30T00:54:01;63.55;;;60.13;;
64157;SDS011;50449;51.528;5.076;2024-01-30T00:56:27;64.75;;;61.05;;
64157;SDS011;50449;51.528;5.076;2024-01-30T00:58:53;63.33;;;59.88;;
64157;SDS011;50449;51.528;5.076;2024-01-30T01:01:19;66.50;;;62.90;;
64157;SDS011;50449;51.528;5.076;2024-01-30T01:03:44;61.38;;;57.97;;
64157;SDS011;50449;51.528;5.076;2024-01-30T01:06:10;66.18;;;62.65;;
64157;SDS011;50449;51.528;5.076;2024-01-30T01:08:35;63.97;;;60.33;;
64157;SDS011;50449;51.528;5.076;2024-01-30T01:11:01;66.40;;;62.72;;
64157;SDS011;50449;51.528;5.076;2024-01-30T01:13:28;65.15;;;61.85;;
64157;SDS011;50449;51.528;5.076;2024-01-30T01:15:54;67.47;;;63.95;;
64157;SDS011;50449;51.528;5.076;2024-01-30T01:18:19;64.43;;;61.40;;
64157;SDS011;50449;51.528;5.076;2024-01-30T01:20:45;64.65;;;61.45;;
64157;SDS011;50449;51.528;5.076;2024-01-30T01:23:11;65.78;;;62.05;;
64157;SDS011;50449;51.528;5.076;2024-01-30T01:25:36;62.58;;;59.38;;
64157;SDS011;50449;51.528;5.076;2024-01-30T01:28:01;63.70;;;60.00;;
64157;SDS011;50449;51.528;5.076;2024-01-30T01:30:27;61.33;;;58.22;;
64157;SDS011;50449;51.528;5.076;2024-01-30T01:32:54;61.55;;;58.45;;
64157;SDS011;50449;51.528;5.076;2024-01-30T01:35:25;63.95;;;60.53;;
64157;SDS011;50449;51.528;5.076;2024-01-30T01:37:51;60.95;;;57.70;;
64157;SDS011;50449;51.528;5.076;2024-01-30T01:40:23;66.93;;;63.13;;
64157;SDS011;50449;51.528;5.076;2024-01-30T01:45:17;60.80;;;57.58;;
64157;SDS011;50449;51.528;5.076;2024-01-30T01:47:43;61.75;;;58.42;;
64157;SDS011;50449;51.528;5.076;2024-01-30T01:50:11;63.15;;;60.00;;
64157;SDS011;50449;51.528;5.076;2024-01-30T01:52:38;58.97;;;56.15;;
64157;SDS011;50449;51.528;5.076;2024-01-30T01:55:06;64.75;;;60.88;;
64157;SDS011;50449;51.528;5.076;2024-01-30T01:57:33;62.83;;;59.75;;
64157;SDS011;50449;51.528;5.076;2024-01-30T01:59:59;62.50;;;58.80;;
64157;SDS011;50449;51.528;5.076;2024-01-30T02:02:26;63.63;;;60.22;;
64157;SDS011;50449;51.528;5.076;2024-01-30T02:04:55;68.03;;;64.22;;
64157;SDS011;50449;51.528;5.076;2024-01-30T02:07:20;66.63;;;62.30;;
64157;SDS011;50449;51.528;5.076;2024-01-30T02:09:45;60.80;;;57.53;;
64157;SDS011;50449;51.528;5.076;2024-01-30T02:12:11;62.97;;;59.58;;
64157;SDS011;50449;51.528;5.076;2024-01-30T02:14:45;64.22;;;60.83;;
64157;SDS011;50449;51.528;5.076;2024-01-30T02:17:12;63.20;;;59.85;;
64157;SDS011;50449;51.528;5.076;2024-01-30T02:19:37;63.28;;;59.83;;
64157;SDS011;50449;51.528;5.076;2024-01-30T02:22:03;65.93;;;62.63;;
64157;SDS011;50449;51.528;5.076;2024-01-30T02:24:29;62.95;;;59.88;;
64157;SDS011;50449;51.528;5.076;2024-01-30T02:26:54;67.00;;;63.70;;
64157;SDS011;50449;51.528;5.076;2024-01-30T02:29:20;64.07;;;60.38;;
64157;SDS011;50449;51.528;5.076;2024-01-30T02:31:46;60.88;;;57.75;;
64157;SDS011;50449;51.528;5.076;2024-01-30T02:34:11;67.95;;;64.45;;
64157;SDS011;50449;51.528;5.076;2024-01-30T02:36:36;65.53;;;61.50;;
64157;SDS011;50449;51.528;5.076;2024-01-30T02:39:02;61.92;;;58.53;;
64157;SDS011;50449;51.528;5.076;2024-01-30T02:41:28;65.13;;;61.65;;
64157;SDS011;50449;51.528;5.076;2024-01-30T02:43:53;63.53;;;60.15;;
64157;SDS011;50449;51.528;5.076;2024-01-30T02:46:19;66.78;;;63.17;;
64157;SDS011;50449;51.528;5.076;2024-01-30T02:48:44;66.43;;;63.03;;
64157;SDS011;50449;51.528;5.076;2024-01-30T02:51:09;64.13;;;60.33;;
64157;SDS011;50449;51.528;5.076;2024-01-30T02:53:35;64.53;;;60.55;;
64157;SDS011;50449;51.528;5.076;2024-01-30T02:56:01;65.38;;;61.40;;
64157;SDS011;50449;51.528;5.076;2024-01-30T02:58:27;64.03;;;58.67;;
64157;SDS011;50449;51.528;5.076;2024-01-30T03:00:53;60.13;;;57.00;;
64157;SDS011;50449;51.528;5.076;2024-01-30T03:03:18;61.58;;;58.22;;
64157;SDS011;50449;51.528;5.076;2024-01-30T03:05:43;62.00;;;58.85;;
64157;SDS011;50449;51.528;5.076;2024-01-30T03:08:09;62.53;;;58.78;;
64157;SDS011;50449;51.528;5.076;2024-01-30T03:10:34;61.38;;;58.28;;
64157;SDS011;50449;51.528;5.076;2024-01-30T03:13:00;64.07;;;60.75;;
64157;SDS011;50449;51.528;5.076;2024-01-30T03:15:25;63.20;;;59.65;;
64157;SDS011;50449;51.528;5.076;2024-01-30T03:17:50;62.47;;;59.20;;
64157;SDS011;50449;51.528;5.076;2024-01-30T03:20:16;63.03;;;59.80;;
64157;SDS011;50449;51.528;5.076;2024-01-30T03:22:41;61.88;;;58.35;;
64157;SDS011;50449;51.528;5.076;2024-01-30T03:25:07;63.60;;;60.45;;
64157;SDS011;50449;51.528;5.076;2024-01-30T03:27:32;62.50;;;59.28;;
64157;SDS011;50449;51.528;5.076;2024-01-30T03:29:57;62.47;;;59.08;;
64157;SDS011;50449;51.528;5.076;2024-01-30T03:32:23;62.72;;;59.33;;
64157;SDS011;50449;51.528;5.076;2024-01-30T03:34:48;65.10;;;61.80;;
64157;SDS011;50449;51.528;5.076;2024-01-30T03:37:14;62.25;;;58.97;;
64157;SDS011;50449;51.528;5.076;2024-01-30T03:39:39;62.78;;;59.35;;
64157;SDS011;50449;51.528;5.076;2024-01-30T03:42:04;65.85;;;62.38;;
64157;SDS011;50449;51.528;5.076;2024-01-30T03:44:30;63.38;;;60.10;;
64157;SDS011;50449;51.528;5.076;2024-01-30T03:46:55;63.47;;;60.30;;
64157;SDS011;50449;51.528;5.076;2024-01-30T03:49:21;60.95;;;57.75;;
64157;SDS011;50449;51.528;5.076;2024-01-30T03:51:46;62.10;;;58.65;;
64157;SDS011;50449;51.528;5.076;2024-01-30T03:54:12;63.92;;;60.45;;
64157;SDS011;50449;51.528;5.076;2024-01-30T03:56:38;64.53;;;61.33;;
64157;SDS011;50449;51.528;5.076;2024-01-30T03:59:03;66.38;;;62.78;;
64157;SDS011;50449;51.528;5.076;2024-01-30T04:01:29;59.97;;;56.63;;
64157;SDS011;50449;51.528;5.076;2024-01-30T04:03:54;52.97;;;50.03;;
64157;SDS011;50449;51.528;5.076;2024-01-30T04:06:20;63.22;;;59.75;;
64157;SDS011;50449;51.528;5.076;2024-01-30T04:08:45;60.65;;;57.60;;
64157;SDS011;50449;51.528;5.076;2024-01-30T04:11:10;62.92;;;59.60;;
64157;SDS011;50449;51.528;5.076;2024-01-30T04:13:36;66.82;;;63.50;;
64157;SDS011;50449;51.528;5.076;2024-01-30T04:16:01;66.13;;;62.50;;
64157;SDS011;50449;51.528;5.076;2024-01-30T04:18:27;64.47;;;61.17;;
64157;SDS011;50449;51.528;5.076;2024-01-30T04:20:53;65.13;;;61.45;;
64157;SDS011;50449;51.528;5.076;2024-01-30T04:23:19;62.67;;;58.75;;
64157;SDS011;50449;51.528;5.076;2024-01-30T04:25:44;62.78;;;59.35;;
64157;SDS011;50449;51.528;5.076;2024-01-30T04:28:10;61.30;;;57.78;;
64157;SDS011;50449;51.528;5.076;2024-01-30T04:30:38;63.65;;;60.00;;
64157;SDS011;50449;51.528;5.076;2024-01-30T04:33:04;57.72;;;54.88;;
64157;SDS011;50449;51.528;5.076;2024-01-30T04:35:29;62.47;;;59.05;;
64157;SDS011;50449;51.528;5.076;2024-01-30T04:37:55;61.17;;;57.90;;
64157;SDS011;50449;51.528;5.076;2024-01-30T04:40:20;67.10;;;63.25;;
64157;SDS011;50449;51.528;5.076;2024-01-30T04:42:46;61.58;;;58.22;;
64157;SDS011;50449;51.528;5.076;2024-01-30T04:45:12;61.50;;;58.22;;
64157;SDS011;50449;51.528;5.076;2024-01-30T04:47:37;64.75;;;61.22;;
64157;SDS011;50449;51.528;5.076;2024-01-30T04:50:04;61.90;;;58.70;;
64157;SDS011;50449;51.528;5.076;2024-01-30T04:52:31;62.85;;;59.30;;
64157;SDS011;50449;51.528;5.076;2024-01-30T04:54:57;61.92;;;58.70;;
64157;SDS011;50449;51.528;5.076;2024-01-30T04:57:22;62.47;;;59.00;;
64157;SDS011;50449;51.528;5.076;2024-01-30T04:59:47;64.03;;;60.65;;
64157;SDS011;50449;51.528;5.076;2024-01-30T05:02:13;64.57;;;61.22;;
64157;SDS011;50449;51.528;5.076;2024-01-30T05:04:38;60.50;;;57.60;;
64157;SDS011;50449;51.528;5.076;2024-01-30T05:07:05;66.90;;;63.10;;
64157;SDS011;50449;51.528;5.076;2024-01-30T05:09:31;65.43;;;62.03;;
64157;SDS011;50449;51.528;5.076;2024-01-30T05:11:56;62.00;;;58.70;;
64157;SDS011;50449;51.528;5.076;2024-01-30T05:14:23;61.90;;;58.78;;
64157;SDS011;50449;51.528;5.076;2024-01-30T05:16:48;62.28;;;59.15;;
64157;SDS011;50449;51.528;5.076;2024-01-30T05:19:14;62.25;;;58.95;;
64157;SDS011;50449;51.528;5.076;2024-01-30T05:21:41;63.45;;;60.15;;
64157;SDS011;50449;51.528;5.076;2024-01-30T05:24:07;64.32;;;60.63;;
64157;SDS011;50449;51.528;5.076;2024-01-30T05:26:34;64.37;;;60.97;;
64157;SDS011;50449;51.528;5.076;2024-01-30T05:29:00;66.65;;;62.85;;
64157;SDS011;50449;51.528;5.076;2024-01-30T05:31:25;63.50;;;60.38;;
64157;SDS011;50449;51.528;5.076;2024-01-30T05:33:52;61.60;;;58.30;;
64157;SDS011;50449;51.528;5.076;2024-01-30T05:36:17;65.30;;;61.90;;
64157;SDS011;50449;51.528;5.076;2024-01-30T05:38:42;62.35;;;59.17;;
64157;SDS011;50449;51.528;5.076;2024-01-30T05:41:08;64.22;;;60.70;;
64157;SDS011;50449;51.528;5.076;2024-01-30T05:43:34;63.38;;;59.30;;
64157;SDS011;50449;51.528;5.076;2024-01-30T05:45:59;63.78;;;60.30;;
64157;SDS011;50449;51.528;5.076;2024-01-30T05:48:25;67.72;;;64.10;;
64157;SDS011;50449;51.528;5.076;2024-01-30T05:50:51;68.15;;;64.65;;
64157;SDS011;50449;51.528;5.076;2024-01-30T05:53:16;64.50;;;60.95;;
64157;SDS011;50449;51.528;5.076;2024-01-30T05:55:42;67.13;;;63.83;;
64157;SDS011;50449;51.528;5.076;2024-01-30T05:58:07;66.53;;;62.92;;
64157;SDS011;50449;51.528;5.076;2024-01-30T06:00:32;69.78;;;65.97;;
64157;SDS011;50449;51.528;5.076;2024-01-30T06:02:58;61.80;;;58.65;;
64157;SDS011;50449;51.528;5.076;2024-01-30T06:05:23;64.70;;;61.40;;
64157;SDS011;50449;51.528;5.076;2024-01-30T06:07:49;61.35;;;58.25;;
64157;SDS011;50449;51.528;5.076;2024-01-30T06:10:14;66.70;;;63.20;;
64157;SDS011;50449;51.528;5.076;2024-01-30T06:12:39;63.45;;;60.03;;
64157;SDS011;50449;51.528;5.076;2024-01-30T06:15:05;66.45;;;62.70;;
64157;SDS011;50449;51.528;5.076;2024-01-30T06:17:31;64.80;;;61.30;;
64157;SDS011;50449;51.528;5.076;2024-01-30T06:19:57;66.28;;;62.85;;
64157;SDS011;50449;51.528;5.076;2024-01-30T06:22:23;64.68;;;60.85;;
64157;SDS011;50449;51.528;5.076;2024-01-30T06:24:48;65.88;;;62.45;;
64157;SDS011;50449;51.528;5.076;2024-01-30T06:27:14;65.30;;;61.83;;
64157;SDS011;50449;51.528;5.076;2024-01-30T06:29:40;66.05;;;62.60;;
64157;SDS011;50449;51.528;5.076;2024-01-30T06:32:07;62.83;;;59.35;;
64157;SDS011;50449;51.528;5.076;2024-01-30T06:34:33;64.03;;;60.67;;
64157;SDS011;50449;51.528;5.076;2024-01-30T06:36:58;63.17;;;59.47;;
64157;SDS011;50449;51.528;5.076;2024-01-30T06:39:24;65.72;;;62.30;;
64157;SDS011;50449;51.528;5.076;2024-01-30T06:41:50;61.72;;;58.63;;
64157;SDS011;50449;51.528;5.076;2024-01-30T06:44:15;66.75;;;63.15;;
64157;SDS011;50449;51.528;5.076;2024-01-30T06:46:40;67.75;;;64.25;;
64157;SDS011;50449;51.528;5.076;2024-01-30T06:49:06;60.85;;;57.92;;
64157;SDS011;50449;51.528;5.076;2024-01-30T06:51:31;65.47;;;61.95;;
64157;SDS011;50449;51.528;5.076;2024-01-30T06:53:57;63.75;;;60.60;;
64157;SDS011;50449;51.528;5.076;2024-01-30T06:56:22;64.30;;;60.47;;
64157;SDS011;50449;51.528;5.076;2024-01-30T06:58:48;67.50;;;63.83;;
64157;SDS011;50449;51.528;5.076;2024-01-30T07:01:14;66.95;;;63.30;;
64157;SDS011;50449;51.528;5.076;2024-01-30T07:03:39;65.30;;;62.00;;
64157;SDS011;50449;51.528;5.076;2024-01-30T07:06:05;64.43;;;61.28;;
64157;SDS011;50449;51.528;5.076;2024-01-30T07:08:30;65.88;;;62.58;;
64157;SDS011;50449;51.528;5.076;2024-01-30T07:10:56;65.00;;;61.42;;
64157;SDS011;50449;51.528;5.076;2024-01-30T07:13:21;68.60;;;65.10;;
64157;SDS011;50449;51.528;5.076;2024-01-30T07:15:47;69.03;;;64.45;;
64157;SDS011;50449;51.528;5.076;2024-01-30T07:18:12;68.80;;;65.05;;
64157;SDS011;50449;51.528;5.076;2024-01-30T07:20:38;69.80;;;66.03;;
64157;SDS011;50449;51.528;5.076;2024-01-30T07:23:12;69.82;;;65.90;;
64157;SDS011;50449;51.528;5.076;2024-01-30T07:25:39;69.47;;;65.18;;
64157;SDS011;50449;51.528;5.076;2024-01-30T07:28:06;67.50;;;64.05;;
64157;SDS011;50449;51.528;5.076;2024-01-30T07:30:34;66.10;;;62.67;;
64157;SDS011;50449;51.528;5.076;2024-01-30T07:32:59;64.93;;;61.70;;
64157;SDS011;50449;51.528;5.076;2024-01-30T07:35:25;66.93;;;62.97;;
64157;SDS011;50449;51.528;5.076;2024-01-30T07:37:50;69.15;;;65.03;;
64157;SDS011;50449;51.528;5.076;2024-01-30T07:40:16;68.38;;;64.78;;
64157;SDS011;50449;51.528;5.076;2024-01-30T07:42:42;69.75;;;65.95;;
64157;SDS011;50449;51.528;5.076;2024-01-30T07:45:07;67.60;;;64.20;;
64157;SDS011;50449;51.528;5.076;2024-01-30T07:47:33;66.28;;;62.78;;
64157;SDS011;50449;51.528;5.076;2024-01-30T07:49:58;68.03;;;64.43;;
64157;SDS011;50449;51.528;5.076;2024-01-30T07:52:24;69.88;;;66.13;;
64157;SDS011;50449;51.528;5.076;2024-01-30T07:54:50;69.55;;;66.13;;
64157;SDS011;50449;51.528;5.076;2024-01-30T07:57:15;69.60;;;66.03;;
64157;SDS011;50449;51.528;5.076;2024-01-30T07:59:44;71.22;;;67.63;;
64157;SDS011;50449;51.528;5.076;2024-01-30T08:02:11;66.25;;;62.67;;
64157;SDS011;50449;51.528;5.076;2024-01-30T08:04:39;67.43;;;64.10;;
64157;SDS011;50449;51.528;5.076;2024-01-30T08:07:05;65.53;;;62.30;;
64157;SDS011;50449;51.528;5.076;2024-01-30T08:09:30;64.55;;;61.15;;
64157;SDS011;50449;51.528;5.076;2024-01-30T08:11:56;64.68;;;61.17;;
64157;SDS011;50449;51.528;5.076;2024-01-30T08:14:21;66.07;;;62.90;;
64157;SDS011;50449;51.528;5.076;2024-01-30T08:16:47;65.38;;;61.30;;
64157;SDS011;50449;51.528;5.076;2024-01-30T08:19:13;68.63;;;65.25;;
64157;SDS011;50449;51.528;5.076;2024-01-30T08:21:39;67.60;;;64.40;;
64157;SDS011;50449;51.528;5.076;2024-01-30T08:24:05;66.95;;;63.60;;
64157;SDS011;50449;51.528;5.076;2024-01-30T08:26:31;69.75;;;66.05;;
64157;SDS011;50449;51.528;5.076;2024-01-30T08:28:57;65.45;;;62.08;;
64157;SDS011;50449;51.528;5.076;2024-01-30T08:31:23;69.13;;;65.65;;
64157;SDS011;50449;51.528;5.076;2024-01-30T08:33:48;69.32;;;65.55;;
64157;SDS011;50449;51.528;5.076;2024-01-30T08:36:14;66.72;;;63.42;;
64157;SDS011;50449;51.528;5.076;2024-01-30T08:38:40;67.15;;;63.78;;
64157;SDS011;50449;51.528;5.076;2024-01-30T08:41:06;67.50;;;64.22;;
64157;SDS011;50449;51.528;5.076;2024-01-30T08:43:32;65.45;;;61.97;;
64157;SDS011;50449;51.528;5.076;2024-01-30T08:46:00;68.60;;;64.70;;
64157;SDS011;50449;51.528;5.076;2024-01-30T08:48:26;68.38;;;64.63;;
64157;SDS011;50449;51.528;5.076;2024-01-30T08:50:52;68.93;;;65.25;;
64157;SDS011;50449;51.528;5.076;2024-01-30T08:53:17;70.35;;;66.30;;
64157;SDS011;50449;51.528;5.076;2024-01-30T08:55:43;67.45;;;63.95;;
64157;SDS011;50449;51.528;5.076;2024-01-30T08:58:09;68.85;;;65.55;;
64157;SDS011;50449;51.528;5.076;2024-01-30T09:00:34;68.10;;;64.72;;
64157;SDS011;50449;51.528;5.076;2024-01-30T09:02:59;64.40;;;61.40;;
64157;SDS011;50449;51.528;5.076;2024-01-30T09:05:25;68.72;;;65.45;;
64157;SDS011;50449;51.528;5.076;2024-01-30T09:07:50;68.57;;;64.75;;
64157;SDS011;50449;51.528;5.076;2024-01-30T09:10:16;66.80;;;63.55;;
64157;SDS011;50449;51.528;5.076;2024-01-30T09:12:41;69.85;;;65.70;;
64157;SDS011;50449;51.528;5.076;2024-01-30T09:15:07;65.72;;;62.67;;
64157;SDS011;50449;51.528;5.076;2024-01-30T09:17:32;67.85;;;64.50;;
64157;SDS011;50449;51.528;5.076;2024-01-30T09:19:58;67.07;;;63.70;;
64157;SDS011;50449;51.528;5.076;2024-01-30T09:22:23;68.43;;;64.70;;
64157;SDS011;50449;51.528;5.076;2024-01-30T09:24:49;72.32;;;68.53;;
64157;SDS011;50449;51.528;5.076;2024-01-30T09:27:14;65.18;;;62.03;;
64157;SDS011;50449;51.528;5.076;2024-01-30T09:29:40;72.13;;;68.18;;
64157;SDS011;50449;51.528;5.076;2024-01-30T09:32:05;73.22;;;68.03;;
64157;SDS011;50449;51.528;5.076;2024-01-30T09:34:31;74.15;;;70.05;;
64157;SDS011;50449;51.528;5.076;2024-01-30T09:36:58;69.80;;;66.18;;
64157;SDS011;50449;51.528;5.076;2024-01-30T09:39:24;70.93;;;67.20;;
64157;SDS011;50449;51.528;5.076;2024-01-30T09:41:54;75.53;;;71.20;;
64157;SDS011;50449;51.528;5.076;2024-01-30T09:44:27;71.82;;;67.38;;
64157;SDS011;50449;51.528;5.076;2024-01-30T09:46:55;71.90;;;68.25;;
64157;SDS011;50449;51.528;5.076;2024-01-30T09:49:23;74.63;;;70.77;;
64157;SDS011;50449;51.528;5.076;2024-01-30T09:51:50;74.78;;;70.80;;
64157;SDS011;50449;51.528;5.076;2024-01-30T09:54:15;69.78;;;66.18;;
64157;SDS011;50449;51.528;5.076;2024-01-30T09:56:41;69.68;;;66.25;;
64157;SDS011;50449;51.528;5.076;2024-01-30T09:59:07;71.25;;;67.20;;
64157;SDS011;50449;51.528;5.076;2024-01-30T10:01:34;72.72;;;68.75;;
64157;SDS011;50449;51.528;5.076;2024-01-30T10:04:01;69.25;;;65.95;;
64157;SDS011;50449;51.528;5.076;2024-01-30T10:06:26;69.88;;;66.57;;
64157;SDS011;50449;51.528;5.076;2024-01-30T10:08:53;72.57;;;68.97;;
64157;SDS011;50449;51.528;5.076;2024-01-30T10:11:18;72.07;;;68.55;;
64157;SDS011;50449;51.528;5.076;2024-01-30T10:13:43;72.35;;;68.60;;
64157;SDS011;50449;51.528;5.076;2024-01-30T10:16:09;71.95;;;67.90;;
64157;SDS011;50449;51.528;5.076;2024-01-30T10:18:34;69.65;;;66.00;;
64157;SDS011;50449;51.528;5.076;2024-01-30T10:20:59;75.95;;;71.57;;
64157;SDS011;50449;51.528;5.076;2024-01-30T10:23:25;73.32;;;69.20;;
64157;SDS011;50449;51.528;5.076;2024-01-30T10:25:51;68.65;;;65.30;;
64157;SDS011;50449;51.528;5.076;2024-01-30T10:28:17;72.03;;;68.60;;
64157;SDS011;50449;51.528;5.076;2024-01-30T10:30:42;68.97;;;65.55;;
64157;SDS011;50449;51.528;5.076;2024-01-30T10:33:08;73.50;;;69.90;;
64157;SDS011;50449;51.528;5.076;2024-01-30T10:35:33;75.70;;;71.93;;
64157;SDS011;50449;51.528;5.076;2024-01-30T10:37:59;75.65;;;71.05;;
64157;SDS011;50449;51.528;5.076;2024-01-30T10:40:27;72.93;;;69.32;;
64157;SDS011;50449;51.528;5.076;2024-01-30T10:42:53;78.80;;;74.97;;
64157;SDS011;50449;51.528;5.076;2024-01-30T10:45:20;77.75;;;73.95;;
64157;SDS011;50449;51.528;5.076;2024-01-30T10:47:52;73.05;;;69.43;;
64157;SDS011;50449;51.528;5.076;2024-01-30T10:50:19;72.57;;;69.15;;
64157;SDS011;50449;51.528;5.076;2024-01-30T10:52:45;77.95;;;74.38;;
64157;SDS011;50449;51.528;5.076;2024-01-30T10:55:14;70.55;;;67.25;;
64157;SDS011;50449;51.528;5.076;2024-01-30T10:57:41;73.95;;;70.45;;
64157;SDS011;50449;51.528;5.076;2024-01-30T11:00:07;75.30;;;71.57;;
64157;SDS011;50449;51.528;5.076;2024-01-30T11:02:41;76.43;;;72.55;;
64157;SDS011;50449;51.528;5.076;2024-01-30T11:05:08;75.13;;;71.47;;
64157;SDS011;50449;51.528;5.076;2024-01-30T11:07:34;73.70;;;69.88;;
64157;SDS011;50449;51.528;5.076;2024-01-30T11:10:00;73.05;;;69.55;;
64157;SDS011;50449;51.528;5.076;2024-01-30T11:12:29;75.47;;;71.88;;
64157;SDS011;50449;51.528;5.076;2024-01-30T11:17:39;75.35;;;71.93;;
64157;SDS011;50449;51.528;5.076;2024-01-30T11:20:05;76.03;;;72.22;;
64157;SDS011;50449;51.528;5.076;2024-01-30T11:22:35;77.65;;;73.82;;
64157;SDS011;50449;51.528;5.076;2024-01-30T11:25:01;75.80;;;72.20;;
64157;SDS011;50449;51.528;5.076;2024-01-30T11:27:28;78.68;;;74.80;;
64157;SDS011;50449;51.528;5.076;2024-01-30T11:30:00;79.28;;;75.43;;
64157;SDS011;50449;51.528;5.076;2024-01-30T11:32:27;75.28;;;71.68;;
64157;SDS011;50449;51.528;5.076;2024-01-30T11:34:53;74.60;;;70.55;;
64157;SDS011;50449;51.528;5.076;2024-01-30T11:37:19;79.13;;;74.13;;
64157;SDS011;50449;51.528;5.076;2024-01-30T11:39:46;78.45;;;74.93;;
64157;SDS011;50449;51.528;5.076;2024-01-30T11:42:13;77.85;;;73.65;;
64157;SDS011;50449;51.528;5.076;2024-01-30T11:44:39;79.57;;;75.88;;
64157;SDS011;50449;51.528;5.076;2024-01-30T11:47:04;78.68;;;74.88;;
64157;SDS011;50449;51.528;5.076;2024-01-30T11:49:29;79.93;;;76.07;;
64157;SDS011;50449;51.528;5.076;2024-01-30T11:51:55;73.25;;;69.90;;
64157;SDS011;50449;51.528;5.076;2024-01-30T11:54:21;76.85;;;73.10;;
64157;SDS011;50449;51.528;5.076;2024-01-30T11:56:46;76.68;;;73.20;;
64157;SDS011;50449;51.528;5.076;2024-01-30T11:59:12;77.38;;;73.75;;
64157;SDS011;50449;51.528;5.076;2024-01-30T12:01:38;73.63;;;70.10;;
64157;SDS011;50449;51.528;5.076;2024-01-30T12:04:04;81.60;;;77.45;;
64157;SDS011;50449;51.528;5.076;2024-01-30T12:06:33;78.00;;;74.43;;
64157;SDS011;50449;51.528;5.076;2024-01-30T12:09:00;81.85;;;78.13;;
64157;SDS011;50449;51.528;5.076;2024-01-30T12:11:30;73.70;;;70.15;;
64157;SDS011;50449;51.528;5.076;2024-01-30T12:13:56;76.70;;;73.15;;
64157;SDS011;50449;51.528;5.076;2024-01-30T12:16:22;79.18;;;75.57;;
64157;SDS011;50449;51.528;5.076;2024-01-30T12:18:48;80.70;;;77.00;;
64157;SDS011;50449;51.528;5.076;2024-01-30T12:21:17;82.65;;;78.72;;
64157;SDS011;50449;51.528;5.076;2024-01-30T12:23:43;78.97;;;75.32;;
64157;SDS011;50449;51.528;5.076;2024-01-30T12:26:09;83.38;;;79.55;;
64157;SDS011;50449;51.528;5.076;2024-01-30T12:28:35;76.68;;;73.07;;
64157;SDS011;50449;51.528;5.076;2024-01-30T12:31:01;79.10;;;75.57;;
64157;SDS011;50449;51.528;5.076;2024-01-30T12:33:28;77.35;;;73.55;;
64157;SDS011;50449;51.528;5.076;2024-01-30T12:35:54;78.03;;;74.45;;
64157;SDS011;50449;51.528;5.076;2024-01-30T12:38:20;79.03;;;75.32;;
64157;SDS011;50449;51.528;5.076;2024-01-30T12:40:45;76.93;;;73.53;;
64157;SDS011;50449;51.528;5.076;2024-01-30T12:43:11;79.75;;;76.05;;
64157;SDS011;50449;51.528;5.076;2024-01-30T12:45:38;79.22;;;75.60;;
64157;SDS011;50449;51.528;5.076;2024-01-30T12:48:04;78.03;;;74.40;;
64157;SDS011;50449;51.528;5.076;2024-01-30T12:50:30;78.00;;;74.40;;
64157;SDS011;50449;51.528;5.076;2024-01-30T12:52:55;77.07;;;73.65;;
64157;SDS011;50449;51.528;5.076;2024-01-30T12:55:21;81.97;;;78.13;;
64157;SDS011;50449;51.528;5.076;2024-01-30T12:57:46;79.38;;;75.88;;
64157;SDS011;50449;51.528;5.076;2024-01-30T13:00:12;82.60;;;78.53;;
64157;SDS011;50449;51.528;5.076;2024-01-30T13:02:37;78.03;;;74.43;;
64157;SDS011;50449;51.528;5.076;2024-01-30T13:05:03;78.63;;;75.15;;
64157;SDS011;50449;51.528;5.076;2024-01-30T13:07:29;79.90;;;76.30;;
64157;SDS011;50449;51.528;5.076;2024-01-30T13:09:54;81.97;;;78.28;;
64157;SDS011;50449;51.528;5.076;2024-01-30T13:12:20;79.60;;;75.97;;
64157;SDS011;50449;51.528;5.076;2024-01-30T13:14:45;80.28;;;76.68;;
64157;SDS011;50449;51.528;5.076;2024-01-30T13:17:11;80.85;;;77.00;;
64157;SDS011;50449;51.528;5.076;2024-01-30T13:19:36;80.63;;;76.82;;
64157;SDS011;50449;51.528;5.076;2024-01-30T13:22:01;80.22;;;76.63;;
64157;SDS011;50449;51.528;5.076;2024-01-30T13:24:27;82.60;;;78.90;;
64157;SDS011;50449;51.528;5.076;2024-01-30T13:26:52;77.70;;;74.25;;
64157;SDS011;50449;51.528;5.076;2024-01-30T13:29:18;79.95;;;76.18;;
64157;SDS011;50449;51.528;5.076;2024-01-30T13:31:44;77.40;;;73.90;;
64157;SDS011;50449;51.528;5.076;2024-01-30T13:34:11;79.63;;;75.90;;
64157;SDS011;50449;51.528;5.076;2024-01-30T13:36:37;80.40;;;76.70;;
64157;SDS011;50449;51.528;5.076;2024-01-30T13:39:03;78.40;;;74.90;;
64157;SDS011;50449;51.528;5.076;2024-01-30T13:43:57;74.15;;;70.78;;
64157;SDS011;50449;51.528;5.076;2024-01-30T13:46:23;78.57;;;74.93;;
64157;SDS011;50449;51.528;5.076;2024-01-30T13:48:48;78.03;;;74.53;;
64157;SDS011;50449;51.528;5.076;2024-01-30T13:51:13;81.93;;;78.22;;
64157;SDS011;50449;51.528;5.076;2024-01-30T13:53:39;79.30;;;75.70;;
64157;SDS011;50449;51.528;5.076;2024-01-30T13:56:04;79.20;;;75.70;;
64157;SDS011;50449;51.528;5.076;2024-01-30T13:58:31;77.53;;;74.03;;
64157;SDS011;50449;51.528;5.076;2024-01-30T14:00:58;77.47;;;74.07;;
64157;SDS011;50449;51.528;5.076;2024-01-30T14:03:24;75.88;;;72.32;;
64157;SDS011;50449;51.528;5.076;2024-01-30T14:05:49;80.80;;;77.03;;
64157;SDS011;50449;51.528;5.076;2024-01-30T14:08:15;80.00;;;76.30;;
64157;SDS011;50449;51.528;5.076;2024-01-30T14:10:40;79.10;;;75.38;;
64157;SDS011;50449;51.528;5.076;2024-01-30T14:13:05;79.35;;;75.72;;
64157;SDS011;50449;51.528;5.076;2024-01-30T14:15:31;79.97;;;76.28;;
64157;SDS011;50449;51.528;5.076;2024-01-30T14:17:56;82.07;;;78.25;;
64157;SDS011;50449;51.528;5.076;2024-01-30T14:20:22;80.43;;;76.35;;